Time;durP1;ratioP1;P1;durP2;ratioP2;P2;SDS_P1;SDS_P2;PMS_P1;PMS_P2;Temp;Humidity;BMP_temperature;BMP_pressure;BME280_temperature;BME280_humidity;BME280_pressure;Samples;Min_cycle;Max_cycle;Signal;HPM_P1;HPM_P2
2021/11/06 00:00:25;;;;;;;10.27;3.75;;;;;;;;;;5026278;28;20489;-85
2021/11/06 00:02:51;;;;;;;7.32;2.85;;;;;;;;;;5012752;28;20410;-84
2021/11/06 00:05:17;;;;;;;14.60;2.90;;;;;;;;;;5039877;28;20048;-85
2021/11/06 00:07:43;;;;;;;5.80;2.40;;;;;;;;;;5045353;28;20080;-85
2021/11/06 00:10:11;;;;;;;7.90;2.90;;;;;;;;;;5013845;28;20075;-85
2021/11/06 00:12:38;;;;;;;6.45;2.78;;;;;;;;;;5013101;28;20045;-85
2021/11/06 00:15:04;;;;;;;4.95;2.72;;;;;;;;;;5013282;28;20045;-86
2021/11/06 00:17:31;;;;;;;8.48;2.50;;;;;;;;;;5013442;28;20045;-85
2021/11/06 00:19:57;;;;;;;9.13;2.90;;;;;;;;;;5013296;28;20077;-87
2021/11/06 00:22:23;;;;;;;8.80;3.03;;;;;;;;;;5029076;28;20045;-86
2021/11/06 00:24:49;;;;;;;7.03;2.50;;;;;;;;;;5037827;28;20049;-85
2021/11/06 00:27:15;;;;;;;7.00;2.60;;;;;;;;;;5043074;28;20044;-85
2021/11/06 00:29:41;;;;;;;16.95;5.80;;;;;;;;;;5049662;28;20079;-85
2021/11/06 00:32:08;;;;;;;7.28;3.40;;;;;;;;;;5045064;28;20037;-85
2021/11/06 00:34:34;;;;;;;5.95;2.92;;;;;;;;;;5012679;28;20602;-84
2021/11/06 00:37:01;;;;;;;7.25;2.97;;;;;;;;;;5013200;28;20096;-84
2021/11/06 00:39:27;;;;;;;6.63;2.63;;;;;;;;;;5028554;28;20049;-85
2021/11/06 00:41:53;;;;;;;6.10;2.78;;;;;;;;;;5032720;28;20037;-85
2021/11/06 00:44:19;;;;;;;5.30;2.60;;;;;;;;;;5029447;28;20362;-85
2021/11/06 00:46:45;;;;;;;6.85;2.80;;;;;;;;;;5012779;28;20062;-85
2021/11/06 00:49:11;;;;;;;8.50;2.75;;;;;;;;;;5013086;28;20130;-87
2021/11/06 00:51:38;;;;;;;6.05;3.30;;;;;;;;;;5012617;28;20037;-85
2021/11/06 00:54:04;;;;;;;5.78;2.58;;;;;;;;;;5013363;28;20064;-85
2021/11/06 00:56:30;;;;;;;16.98;4.10;;;;;;;;;;5013037;28;20409;-85
2021/11/06 00:58:56;;;;;;;6.65;3.25;;;;;;;;;;5013425;28;20046;-84
2021/11/06 01:01:22;;;;;;;7.30;4.15;;;;;;;;;;5012041;28;20049;-87
2021/11/06 01:03:48;;;;;;;8.95;3.75;;;;;;;;;;5013377;28;20528;-85
2021/11/06 01:06:14;;;;;;;6.07;3.10;;;;;;;;;;5011253;28;20052;-86
2021/11/06 01:08:43;;;;;;;7.22;3.13;;;;;;;;;;5009665;28;20060;-86
2021/11/06 01:11:09;;;;;;;8.52;3.22;;;;;;;;;;5010904;28;20397;-84
2021/11/06 01:13:36;;;;;;;8.40;3.53;;;;;;;;;;5011906;28;20132;-86
2021/11/06 01:16:02;;;;;;;8.48;3.60;;;;;;;;;;5012958;28;20095;-85
2021/11/06 01:18:28;;;;;;;8.07;3.70;;;;;;;;;;5012153;28;20491;-86
2021/11/06 01:20:54;;;;;;;6.97;3.33;;;;;;;;;;5029120;28;20056;-85
2021/11/06 01:23:20;;;;;;;9.55;4.40;;;;;;;;;;5014195;28;20123;-86
2021/11/06 01:25:46;;;;;;;10.98;5.38;;;;;;;;;;5032690;28;20103;-86
2021/11/06 01:28:12;;;;;;;11.38;4.20;;;;;;;;;;5032613;28;20053;-87
2021/11/06 01:30:39;;;;;;;24.15;7.07;;;;;;;;;;5015859;28;20037;-86
2021/11/06 01:33:05;;;;;;;11.13;4.90;;;;;;;;;;5012354;28;20041;-86
2021/11/06 01:35:31;;;;;;;11.65;5.90;;;;;;;;;;5011709;28;20049;-85
2021/11/06 01:38:00;;;;;;;14.98;5.20;;;;;;;;;;5011156;28;20171;-86
2021/11/06 01:40:28;;;;;;;10.48;5.35;;;;;;;;;;5013709;28;20056;-85
2021/11/06 01:42:54;;;;;;;11.07;5.65;;;;;;;;;;5017440;28;20140;-86
2021/11/06 01:45:20;;;;;;;11.45;5.53;;;;;;;;;;5036298;28;20118;-86
2021/11/06 01:47:47;;;;;;;11.70;5.65;;;;;;;;;;5052076;28;20057;-85
2021/11/06 01:50:13;;;;;;;8.82;5.13;;;;;;;;;;5032354;28;20076;-87
2021/11/06 01:52:40;;;;;;;8.82;5.88;;;;;;;;;;5017330;28;20057;-86
2021/11/06 01:55:07;;;;;;;14.38;7.03;;;;;;;;;;5012602;28;20131;-85
2021/11/06 01:57:34;;;;;;;10.23;6.68;;;;;;;;;;5033245;28;20045;-86
2021/11/06 02:00:00;;;;;;;9.75;6.28;;;;;;;;;;5017256;28;20420;-85
2021/11/06 02:02:27;;;;;;;16.42;10.45;;;;;;;;;;5033241;28;20049;-85
2021/11/06 02:04:53;;;;;;;10.25;6.07;;;;;;;;;;5033101;28;20045;-86
2021/11/06 02:07:20;;;;;;;19.88;8.35;;;;;;;;;;5032366;28;20049;-86
2021/11/06 02:09:46;;;;;;;10.63;6.68;;;;;;;;;;5016484;28;20045;-86
2021/11/06 02:12:12;;;;;;;11.35;6.50;;;;;;;;;;5032480;28;20485;-87
2021/11/06 02:14:38;;;;;;;11.55;5.80;;;;;;;;;;5012541;28;20472;-86
2021/11/06 02:17:04;;;;;;;12.70;7.35;;;;;;;;;;5015854;28;20049;-85
2021/11/06 02:19:31;;;;;;;11.93;6.70;;;;;;;;;;5031977;28;20065;-86
2021/11/06 02:21:59;;;;;;;14.95;6.82;;;;;;;;;;5031184;28;20049;-85
2021/11/06 02:24:25;;;;;;;11.75;7.85;;;;;;;;;;5022373;28;20129;-85
2021/11/06 02:26:52;;;;;;;15.88;8.80;;;;;;;;;;4999628;28;20045;-85
2021/11/06 02:29:18;;;;;;;14.70;8.90;;;;;;;;;;5015467;28;20056;-85
2021/11/06 02:31:44;;;;;;;19.80;9.73;;;;;;;;;;5030294;28;20049;-85
2021/11/06 02:34:11;;;;;;;13.73;9.55;;;;;;;;;;5015590;28;20037;-86
2021/11/06 02:36:38;;;;;;;17.27;9.15;;;;;;;;;;5030856;28;20409;-86
2021/11/06 02:39:05;;;;;;;16.67;8.50;;;;;;;;;;5014634;28;20153;-85
2021/11/06 02:41:32;;;;;;;15.77;9.00;;;;;;;;;;5015056;28;20123;-86
2021/11/06 02:43:59;;;;;;;13.40;9.18;;;;;;;;;;5015709;28;20050;-84
2021/11/06 02:46:25;;;;;;;15.15;10.30;;;;;;;;;;5015907;28;20697;-85
2021/11/06 02:48:52;;;;;;;14.02;9.00;;;;;;;;;;5014129;28;20049;-87
2021/11/06 02:51:18;;;;;;;12.38;8.80;;;;;;;;;;5030034;28;20128;-86
2021/11/06 02:53:44;;;;;;;13.45;8.20;;;;;;;;;;5031600;28;20107;-85
2021/11/06 02:56:10;;;;;;;15.57;10.15;;;;;;;;;;5015462;28;20064;-85
2021/11/06 02:58:36;;;;;;;15.70;9.23;;;;;;;;;;5014939;28;20070;-85
2021/11/06 03:01:03;;;;;;;21.10;11.23;;;;;;;;;;5012133;28;20042;-85
2021/11/06 03:03:29;;;;;;;18.92;10.25;;;;;;;;;;5031339;28;20056;-87
2021/11/06 03:05:55;;;;;;;21.13;11.45;;;;;;;;;;5035516;28;20048;-85
2021/11/06 03:08:21;;;;;;;20.05;10.63;;;;;;;;;;5042517;28;20119;-85
2021/11/06 03:10:48;;;;;;;15.35;10.18;;;;;;;;;;5015058;28;20044;-86
2021/11/06 03:13:14;;;;;;;17.48;10.73;;;;;;;;;;5031280;28;20128;-86
2021/11/06 03:15:41;;;;;;;17.77;10.07;;;;;;;;;;5014944;28;20112;-85
2021/11/06 03:18:07;;;;;;;15.98;10.55;;;;;;;;;;5031589;28;20049;-85
2021/11/06 03:20:33;;;;;;;20.52;11.00;;;;;;;;;;5030972;28;20047;-87
2021/11/06 03:22:59;;;;;;;14.05;9.75;;;;;;;;;;5013343;28;20045;-85
2021/11/06 03:25:27;;;;;;;14.77;9.48;;;;;;;;;;5000943;28;20048;-86
2021/11/06 03:27:53;;;;;;;18.17;10.75;;;;;;;;;;5014859;28;20041;-85
2021/11/06 03:30:19;;;;;;;16.98;9.98;;;;;;;;;;5029848;28;20041;-86
2021/11/06 03:32:45;;;;;;;20.85;10.63;;;;;;;;;;5014645;28;20441;-85
2021/11/06 03:35:11;;;;;;;20.25;10.57;;;;;;;;;;5030542;28;20652;-85
2021/11/06 03:37:38;;;;;;;15.75;10.63;;;;;;;;;;5029824;28;20091;-85
2021/11/06 03:40:05;;;;;;;16.67;10.45;;;;;;;;;;5013134;28;20544;-85
2021/11/06 03:42:31;;;;;;;21.10;11.07;;;;;;;;;;5014143;28;20140;-85
2021/11/06 03:44:58;;;;;;;18.10;10.48;;;;;;;;;;5014068;28;20114;-86
2021/11/06 03:47:24;;;;;;;23.10;10.80;;;;;;;;;;5012782;28;20060;-85
2021/11/06 03:49:50;;;;;;;19.02;10.32;;;;;;;;;;5013763;28;20521;-86
2021/11/06 03:52:17;;;;;;;15.65;9.95;;;;;;;;;;5034287;28;20077;-87
2021/11/06 03:54:43;;;;;;;18.20;11.23;;;;;;;;;;5013925;28;20518;-85
2021/11/06 03:57:09;;;;;;;14.55;9.88;;;;;;;;;;5013934;28;20489;-86
2021/11/06 03:59:35;;;;;;;17.23;11.25;;;;;;;;;;5029321;28;20034;-85
2021/11/06 04:02:02;;;;;;;16.85;10.07;;;;;;;;;;5030578;28;20057;-85
2021/11/06 04:04:28;;;;;;;16.73;11.15;;;;;;;;;;5029128;28;20041;-85
2021/11/06 04:06:54;;;;;;;18.48;10.43;;;;;;;;;;5030051;28;20132;-86
2021/11/06 04:09:20;;;;;;;18.48;10.75;;;;;;;;;;5013119;28;20041;-85
2021/11/06 04:11:46;;;;;;;18.85;10.55;;;;;;;;;;5013830;28;20041;-85
2021/11/06 04:14:13;;;;;;;18.30;11.55;;;;;;;;;;5029410;28;20041;-85
2021/11/06 04:16:39;;;;;;;25.60;12.20;;;;;;;;;;5011701;28;20049;-87
2021/11/06 04:19:05;;;;;;;17.70;11.07;;;;;;;;;;5013066;28;20124;-86
2021/11/06 04:21:33;;;;;;;15.55;10.60;;;;;;;;;;5014933;28;20428;-86
2021/11/06 04:23:59;;;;;;;18.08;11.25;;;;;;;;;;5029760;28;20444;-85
2021/11/06 04:26:25;;;;;;;19.92;10.43;;;;;;;;;;5012815;28;20172;-85
2021/11/06 04:28:51;;;;;;;15.32;9.60;;;;;;;;;;5013806;28;20056;-86
2021/11/06 04:31:17;;;;;;;23.17;11.05;;;;;;;;;;5012979;28;20499;-88
2021/11/06 04:33:43;;;;;;;17.10;10.90;;;;;;;;;;5013134;28;20045;-86
2021/11/06 04:36:10;;;;;;;18.63;11.55;;;;;;;;;;5029309;28;20502;-85
2021/11/06 04:38:36;;;;;;;17.48;11.10;;;;;;;;;;5028005;28;20041;-86
2021/11/06 04:41:02;;;;;;;16.55;11.60;;;;;;;;;;5013598;28;20116;-86
2021/11/06 04:43:29;;;;;;;18.48;12.50;;;;;;;;;;5012973;28;20095;-85
2021/11/06 04:45:55;;;;;;;24.88;13.10;;;;;;;;;;5013222;28;20063;-85
2021/11/06 04:48:21;;;;;;;18.85;11.32;;;;;;;;;;5012158;28;20060;-85
2021/11/06 04:50:47;;;;;;;19.05;12.63;;;;;;;;;;5029121;28;20124;-85
2021/11/06 04:53:13;;;;;;;22.67;14.52;;;;;;;;;;5013456;28;20432;-85
2021/11/06 04:55:39;;;;;;;21.50;13.55;;;;;;;;;;5012629;28;20073;-85
2021/11/06 04:58:05;;;;;;;27.45;14.38;;;;;;;;;;5012790;28;20132;-86
2021/11/06 05:00:31;;;;;;;24.73;14.43;;;;;;;;;;5012204;28;20046;-85
2021/11/06 05:02:57;;;;;;;22.50;14.00;;;;;;;;;;5029423;28;20127;-84
2021/11/06 05:05:24;;;;;;;23.05;14.40;;;;;;;;;;5012212;28;20041;-85
2021/11/06 05:07:50;;;;;;;24.75;15.98;;;;;;;;;;5012101;28;20045;-85
2021/11/06 05:10:18;;;;;;;23.95;15.52;;;;;;;;;;5028166;28;20068;-86
2021/11/06 05:12:44;;;;;;;26.08;15.60;;;;;;;;;;5021391;28;20052;-86
2021/11/06 05:15:10;;;;;;;22.20;14.13;;;;;;;;;;5028486;28;20056;-85
2021/11/06 05:17:36;;;;;;;23.88;17.08;;;;;;;;;;5028780;28;20041;-85
2021/11/06 05:20:04;;;;;;;21.50;13.95;;;;;;;;;;5029358;28;20048;-85
2021/11/06 05:22:30;;;;;;;25.15;15.38;;;;;;;;;;5028725;28;20049;-86
2021/11/06 05:24:56;;;;;;;23.48;14.35;;;;;;;;;;5012560;28;20045;-87
2021/11/06 05:27:22;;;;;;;26.92;14.40;;;;;;;;;;5028169;28;20110;-85
2021/11/06 05:29:48;;;;;;;23.88;16.30;;;;;;;;;;4996748;28;20191;-85
2021/11/06 05:32:15;;;;;;;24.25;15.18;;;;;;;;;;5012963;28;20041;-84
2021/11/06 05:34:41;;;;;;;25.13;15.48;;;;;;;;;;5028421;28;20490;-85
2021/11/06 05:37:07;;;;;;;21.48;14.98;;;;;;;;;;5012601;28;20060;-85
2021/11/06 05:39:33;;;;;;;21.25;14.60;;;;;;;;;;5010879;28;20072;-85
2021/11/06 05:41:59;;;;;;;24.15;16.15;;;;;;;;;;5012362;28;20077;-85
2021/11/06 05:44:25;;;;;;;21.17;15.57;;;;;;;;;;5011843;28;20050;-85
2021/11/06 05:46:51;;;;;;;25.42;16.60;;;;;;;;;;5027952;28;20523;-85
2021/11/06 05:49:18;;;;;;;27.48;17.13;;;;;;;;;;5010296;28;20081;-87
2021/11/06 05:51:44;;;;;;;23.10;15.13;;;;;;;;;;5034960;28;20044;-85
2021/11/06 05:54:10;;;;;;;20.95;13.75;;;;;;;;;;5028923;28;20052;-86
2021/11/06 05:56:36;;;;;;;20.88;14.57;;;;;;;;;;5028473;28;20169;-85
2021/11/06 05:59:03;;;;;;;21.33;14.30;;;;;;;;;;5012416;28;20053;-86
2021/11/06 06:01:29;;;;;;;19.63;11.95;;;;;;;;;;5011511;28;20128;-85
2021/11/06 06:03:55;;;;;;;23.83;14.45;;;;;;;;;;5029018;28;20041;-85
2021/11/06 06:06:21;;;;;;;23.38;13.98;;;;;;;;;;5025427;28;20469;-85
2021/11/06 06:08:48;;;;;;;24.08;14.50;;;;;;;;;;5028059;28;20053;-85
2021/11/06 06:11:14;;;;;;;24.17;15.23;;;;;;;;;;5019001;28;20126;-85
2021/11/06 06:13:41;;;;;;;23.00;15.25;;;;;;;;;;5024751;28;20878;-85
2021/11/06 06:16:07;;;;;;;22.30;15.10;;;;;;;;;;5028768;28;20095;-85
2021/11/06 06:18:33;;;;;;;30.75;16.73;;;;;;;;;;5028185;28;20037;-85
2021/11/06 06:20:59;;;;;;;25.52;16.80;;;;;;;;;;5028310;28;20049;-86
2021/11/06 06:23:25;;;;;;;23.23;16.73;;;;;;;;;;5028367;28;20491;-85
2021/11/06 06:25:51;;;;;;;27.50;16.58;;;;;;;;;;5028765;28;20056;-85
2021/11/06 06:28:17;;;;;;;26.63;17.52;;;;;;;;;;5031679;28;20045;-85
2021/11/06 06:30:43;;;;;;;23.08;16.10;;;;;;;;;;5031256;28;20115;-85
2021/11/06 06:33:10;;;;;;;27.27;18.48;;;;;;;;;;5016085;28;20049;-84
2021/11/06 06:35:36;;;;;;;27.33;17.02;;;;;;;;;;5014705;28;20049;-85
2021/11/06 06:38:02;;;;;;;30.63;18.05;;;;;;;;;;5031642;28;20393;-85
2021/11/06 06:40:28;;;;;;;29.45;18.52;;;;;;;;;;5015589;28;20041;-85
2021/11/06 06:42:54;;;;;;;24.65;17.58;;;;;;;;;;5018836;28;20049;-85
2021/11/06 06:45:22;;;;;;;28.33;18.90;;;;;;;;;;5031627;28;20041;-87
2021/11/06 06:47:48;;;;;;;30.23;18.35;;;;;;;;;;5031043;28;20080;-84
2021/11/06 06:50:15;;;;;;;29.40;17.67;;;;;;;;;;5015210;28;20041;-85
2021/11/06 06:52:41;;;;;;;26.58;17.85;;;;;;;;;;5014723;28;20384;-85
2021/11/06 06:55:08;;;;;;;26.98;17.63;;;;;;;;;;5015198;28;20068;-85
2021/11/06 06:57:34;;;;;;;32.38;17.88;;;;;;;;;;5014590;28;20121;-84
2021/11/06 07:00:00;;;;;;;27.85;18.00;;;;;;;;;;5015273;28;20049;-85
2021/11/06 07:02:27;;;;;;;23.27;16.38;;;;;;;;;;5019888;28;20091;-85
2021/11/06 07:04:53;;;;;;;28.38;16.23;;;;;;;;;;5014779;28;20075;-85
2021/11/06 07:07:19;;;;;;;25.75;16.70;;;;;;;;;;5031480;28;20045;-85
2021/11/06 07:09:45;;;;;;;23.65;16.15;;;;;;;;;;5030288;28;20068;-85
2021/11/06 07:12:11;;;;;;;22.52;15.98;;;;;;;;;;5015140;28;20052;-85
2021/11/06 07:14:37;;;;;;;23.25;16.27;;;;;;;;;;5013929;28;20172;-85
2021/11/06 07:17:04;;;;;;;24.42;14.93;;;;;;;;;;5031014;28;20050;-85
2021/11/06 07:19:30;;;;;;;22.50;15.25;;;;;;;;;;5013838;28;20416;-86
2021/11/06 07:21:56;;;;;;;24.80;15.13;;;;;;;;;;5020566;28;20033;-85
2021/11/06 07:24:22;;;;;;;22.10;15.50;;;;;;;;;;5030943;28;20080;-86
2021/11/06 07:26:48;;;;;;;20.90;12.93;;;;;;;;;;5031156;28;20051;-86
2021/11/06 07:29:14;;;;;;;22.63;15.13;;;;;;;;;;5014592;28;20048;-85
2021/11/06 07:31:41;;;;;;;21.67;15.02;;;;;;;;;;4998231;28;20188;-85
2021/11/06 07:34:07;;;;;;;20.05;13.18;;;;;;;;;;5012833;28;20049;-85
2021/11/06 07:36:33;;;;;;;21.50;13.23;;;;;;;;;;5014034;28;20049;-85
2021/11/06 07:38:59;;;;;;;25.23;15.77;;;;;;;;;;5029170;28;20045;-84
2021/11/06 07:41:25;;;;;;;21.70;14.98;;;;;;;;;;5030364;28;20051;-85
2021/11/06 07:43:53;;;;;;;22.23;14.15;;;;;;;;;;5030914;28;20060;-85
2021/11/06 07:46:19;;;;;;;22.38;15.23;;;;;;;;;;5013415;28;20065;-85
2021/11/06 07:48:46;;;;;;;23.92;16.02;;;;;;;;;;5013679;28;20088;-85
2021/11/06 07:51:12;;;;;;;24.70;15.73;;;;;;;;;;5023689;28;20045;-86
2021/11/06 07:53:38;;;;;;;24.63;17.40;;;;;;;;;;5039570;28;20107;-84
2021/11/06 07:56:04;;;;;;;26.45;15.88;;;;;;;;;;5014114;28;20041;-85
2021/11/06 07:58:30;;;;;;;23.75;14.18;;;;;;;;;;5013430;28;20132;-85
2021/11/06 08:00:57;;;;;;;25.55;16.83;;;;;;;;;;5013569;28;20049;-85
2021/11/06 08:03:24;;;;;;;28.38;18.02;;;;;;;;;;4994059;28;20053;-87
2021/11/06 08:05:50;;;;;;;20.13;13.43;;;;;;;;;;5009153;28;20045;-85
2021/11/06 08:08:16;;;;;;;26.55;16.27;;;;;;;;;;5030497;28;20386;-85
2021/11/06 08:10:42;;;;;;;23.98;16.88;;;;;;;;;;5016834;28;20081;-84
2021/11/06 08:13:08;;;;;;;22.40;15.73;;;;;;;;;;5050311;28;20045;-84
2021/11/06 08:15:34;;;;;;;24.25;15.35;;;;;;;;;;5040751;28;20068;-84
2021/11/06 08:18:00;;;;;;;23.08;15.77;;;;;;;;;;5030620;28;20053;-84
2021/11/06 08:20:26;;;;;;;20.42;13.20;;;;;;;;;;5013779;28;20038;-85
2021/11/06 08:22:53;;;;;;;20.88;15.20;;;;;;;;;;5030547;28;20152;-85
2021/11/06 08:25:20;;;;;;;23.88;15.60;;;;;;;;;;5030746;28;20048;-85
2021/11/06 08:27:48;;;;;;;23.90;15.13;;;;;;;;;;5030106;28;20045;-85
2021/11/06 08:30:16;;;;;;;25.80;15.52;;;;;;;;;;5030277;28;20046;-86
2021/11/06 08:32:42;;;;;;;25.20;15.60;;;;;;;;;;5013542;28;20152;-85
2021/11/06 08:35:09;;;;;;;22.60;15.20;;;;;;;;;;5010746;28;20081;-85
2021/11/06 08:37:36;;;;;;;23.60;15.77;;;;;;;;;;5013207;28;20064;-85
2021/11/06 08:40:03;;;;;;;24.55;14.80;;;;;;;;;;5012847;28;20069;-86
2021/11/06 08:42:29;;;;;;;24.05;14.90;;;;;;;;;;5013137;28;20037;-85
2021/11/06 08:44:55;;;;;;;24.48;15.15;;;;;;;;;;5035066;28;20049;-86
2021/11/06 08:47:21;;;;;;;23.33;14.40;;;;;;;;;;5014247;28;20053;-87
2021/11/06 08:49:48;;;;;;;23.25;14.50;;;;;;;;;;5036044;28;20060;-90
2021/11/06 08:52:18;;;;;;;23.10;14.45;;;;;;;;;;5043077;28;20049;-91
2021/11/06 08:54:45;;;;;;;23.00;13.93;;;;;;;;;;5015275;28;20038;-91
2021/11/06 08:57:11;;;;;;;19.30;12.95;;;;;;;;;;5016232;28;20053;-92
2021/11/06 08:59:40;;;;;;;21.30;14.30;;;;;;;;;;5016380;28;20099;-91
2021/11/06 09:02:07;;;;;;;24.83;14.65;;;;;;;;;;5013851;28;20041;-91
2021/11/06 09:04:33;;;;;;;19.30;12.40;;;;;;;;;;5015320;28;20099;-91
2021/11/06 09:06:59;;;;;;;21.33;13.80;;;;;;;;;;5016205;28;20409;-91
2021/11/06 09:09:25;;;;;;;15.63;11.60;;;;;;;;;;5015566;28;20053;-94
2021/11/06 09:11:53;;;;;;;18.42;13.25;;;;;;;;;;5030664;28;20485;-88
2021/11/06 09:14:20;;;;;;;23.48;11.85;;;;;;;;;;5041183;28;20041;-88
2021/11/06 09:16:46;;;;;;;17.00;9.18;;;;;;;;;;5029926;28;20139;-87
2021/11/06 09:19:13;;;;;;;19.63;14.32;;;;;;;;;;5034086;28;20056;-87
2021/11/06 09:21:40;;;;;;;21.98;13.73;;;;;;;;;;5013717;28;20041;-87
2021/11/06 09:24:07;;;;;;;17.15;11.65;;;;;;;;;;5029882;28;20429;-87
2021/11/06 09:26:38;;;;;;;22.58;11.93;;;;;;;;;;5029389;28;20046;-87
2021/11/06 09:29:05;;;;;;;20.55;13.70;;;;;;;;;;5031951;28;20061;-87
2021/11/06 09:31:31;;;;;;;23.67;14.52;;;;;;;;;;5032867;28;20378;-87
2021/11/06 09:33:58;;;;;;;22.02;12.35;;;;;;;;;;5015480;28;20049;-87
2021/11/06 09:36:24;;;;;;;20.20;12.82;;;;;;;;;;5013886;28;20091;-90
2021/11/06 09:38:51;;;;;;;22.88;14.18;;;;;;;;;;5014729;28;20053;-87
2021/11/06 09:41:17;;;;;;;19.30;11.48;;;;;;;;;;5013871;28;20034;-87
2021/11/06 09:43:44;;;;;;;19.63;12.15;;;;;;;;;;5013642;28;20650;-88
2021/11/06 09:46:10;;;;;;;20.83;14.45;;;;;;;;;;5029744;28;20180;-88
2021/11/06 09:48:37;;;;;;;19.13;12.65;;;;;;;;;;5013878;28;20045;-88
2021/11/06 09:51:03;;;;;;;15.95;10.32;;;;;;;;;;5013274;28;20373;-89
2021/11/06 09:53:37;;;;;;;17.27;11.93;;;;;;;;;;5029853;28;20064;-87
2021/11/06 09:56:04;;;;;;;14.93;9.77;;;;;;;;;;5011746;28;20076;-88
2021/11/06 09:58:30;;;;;;;17.77;10.85;;;;;;;;;;5045823;28;20458;-88
2021/11/06 10:00:56;;;;;;;18.67;11.20;;;;;;;;;;5024813;28;20072;-87
2021/11/06 10:03:22;;;;;;;19.42;11.35;;;;;;;;;;5024789;28;20117;-87
2021/11/06 10:05:50;;;;;;;17.02;11.27;;;;;;;;;;5017501;28;20081;-87
2021/11/06 10:08:21;;;;;;;18.08;11.48;;;;;;;;;;5033921;28;20061;-88
2021/11/06 10:10:48;;;;;;;21.30;11.60;;;;;;;;;;5016325;28;20049;-87
2021/11/06 10:13:15;;;;;;;13.23;8.40;;;;;;;;;;5017292;28;20383;-89
2021/11/06 10:15:43;;;;;;;18.20;9.75;;;;;;;;;;5016738;28;20067;-88
2021/11/06 10:18:15;;;;;;;20.83;10.55;;;;;;;;;;5017155;28;20042;-87
2021/11/06 10:20:41;;;;;;;16.92;11.02;;;;;;;;;;5020240;28;20077;-87
2021/11/06 10:23:08;;;;;;;17.40;10.63;;;;;;;;;;5019841;28;20045;-88
2021/11/06 10:25:35;;;;;;;15.23;10.15;;;;;;;;;;5016352;28;20397;-87
2021/11/06 10:28:06;;;;;;;14.15;9.13;;;;;;;;;;5017130;28;20393;-88
2021/11/06 10:30:36;;;;;;;18.88;9.32;;;;;;;;;;5032737;28;20056;-88
2021/11/06 10:33:04;;;;;;;19.63;10.63;;;;;;;;;;5016972;28;20111;-88
2021/11/06 10:35:33;;;;;;;17.63;9.27;;;;;;;;;;5013149;28;20140;-87
2021/11/06 10:37:59;;;;;;;17.15;10.77;;;;;;;;;;5015864;28;20052;-88
2021/11/06 10:40:30;;;;;;;19.05;11.23;;;;;;;;;;5033641;28;20045;-88
2021/11/06 10:42:57;;;;;;;19.17;11.93;;;;;;;;;;5017136;28;20041;-88
2021/11/06 10:45:25;;;;;;;20.98;11.02;;;;;;;;;;5016908;28;20088;-86
2021/11/06 10:48:08;;;;;;;16.80;9.90;;;;;;;;;;5016096;28;20061;-87
2021/11/06 10:50:53;;;;;;;14.93;8.15;;;;;;;;;;5014624;28;20511;-85
2021/11/06 10:53:37;;;;;;;17.63;11.55;;;;;;;;;;5015504;28;20049;-86
2021/11/06 10:56:19;;;;;;;19.30;11.77;;;;;;;;;;5019534;28;20050;-87
2021/11/06 10:58:47;;;;;;;21.15;11.93;;;;;;;;;;5033728;28;20396;-86
2021/11/06 11:01:17;;;;;;;19.08;11.68;;;;;;;;;;5033570;28;20183;-85
2021/11/06 11:03:49;;;;;;;19.67;11.90;;;;;;;;;;5033701;28;20042;-91
2021/11/06 11:06:18;;;;;;;22.00;12.35;;;;;;;;;;5019887;28;20075;-92
2021/11/06 11:08:48;;;;;;;19.65;11.80;;;;;;;;;;5019401;28;20060;-92
2021/11/06 11:11:18;;;;;;;26.48;13.45;;;;;;;;;;5017773;28;20128;-90
2021/11/06 11:13:51;;;;;;;17.55;9.25;;;;;;;;;;5017170;28;20049;-90
2021/11/06 11:16:18;;;;;;;21.83;12.00;;;;;;;;;;5018710;28;20057;-91
2021/11/06 11:18:45;;;;;;;20.67;12.23;;;;;;;;;;5021885;28;20080;-91
2021/11/06 11:21:25;;;;;;;20.75;12.82;;;;;;;;;;5018631;28;20042;-92
2021/11/06 11:24:11;;;;;;;21.10;11.25;;;;;;;;;;5029506;28;20053;-92
2021/11/06 11:26:41;;;;;;;24.15;14.18;;;;;;;;;;5019892;28;20038;-91
2021/11/06 11:29:07;;;;;;;21.25;11.45;;;;;;;;;;5019141;28;20088;-90
2021/11/06 11:31:36;;;;;;;21.10;12.23;;;;;;;;;;5018143;28;20091;-91
2021/11/06 11:34:03;;;;;;;18.65;12.65;;;;;;;;;;5018636;28;20049;-90
2021/11/06 11:36:32;;;;;;;18.65;11.25;;;;;;;;;;5017871;28;20045;-94
2021/11/06 11:38:59;;;;;;;19.85;12.40;;;;;;;;;;5018190;28;20049;-91
2021/11/06 11:41:31;;;;;;;17.35;11.60;;;;;;;;;;5018506;28;20037;-89
2021/11/06 11:44:16;;;;;;;20.10;12.88;;;;;;;;;;5050104;28;20375;-89
2021/11/06 11:46:49;;;;;;;21.65;11.75;;;;;;;;;;5037318;28;20056;-90
2021/11/06 11:49:15;;;;;;;20.92;12.57;;;;;;;;;;5038270;28;20053;-92
2021/11/06 11:51:42;;;;;;;21.85;13.60;;;;;;;;;;5037836;28;20056;-91
2021/11/06 11:54:09;;;;;;;17.10;10.55;;;;;;;;;;5052164;28;20045;-91
2021/11/06 11:56:36;;;;;;;21.40;11.93;;;;;;;;;;5017628;28;20087;-86
2021/11/06 11:59:04;;;;;;;17.80;11.95;;;;;;;;;;5034042;28;20049;-86
2021/11/06 12:01:30;;;;;;;17.13;9.50;;;;;;;;;;5016171;28;20166;-89
2021/11/06 12:03:58;;;;;;;19.92;11.07;;;;;;;;;;5033252;28;20071;-90
2021/11/06 12:06:28;;;;;;;20.20;11.10;;;;;;;;;;5033300;28;20160;-90
2021/11/06 12:08:58;;;;;;;17.73;10.23;;;;;;;;;;5016702;28;20140;-90
2021/11/06 12:11:25;;;;;;;19.20;10.95;;;;;;;;;;5014816;28;20037;-86
2021/11/06 12:13:53;;;;;;;18.20;11.35;;;;;;;;;;5029756;28;20057;-85
2021/11/06 12:16:45;;;;;;;16.35;9.90;;;;;;;;;;5030777;28;20120;-87
2021/11/06 12:19:12;;;;;;;18.77;8.82;;;;;;;;;;5038566;28;20140;-89
2021/11/06 12:21:42;;;;;;;19.60;11.38;;;;;;;;;;5015818;28;20226;-91
2021/11/06 12:24:12;;;;;;;11.63;6.65;;;;;;;;;;5015966;28;20621;-89
2021/11/06 12:26:44;;;;;;;17.65;10.00;;;;;;;;;;5013011;28;20045;-88
2021/11/06 12:29:10;;;;;;;17.40;9.55;;;;;;;;;;5025672;28;20060;-88
2021/11/06 12:31:40;;;;;;;17.75;9.23;;;;;;;;;;5032230;28;20152;-89
2021/11/06 12:34:07;;;;;;;16.75;9.82;;;;;;;;;;5015985;28;20501;-89
2021/11/06 12:36:34;;;;;;;16.90;10.15;;;;;;;;;;5015322;28;20042;-91
2021/11/06 12:39:02;;;;;;;15.40;8.25;;;;;;;;;;5015679;28;20397;-90
2021/11/06 12:41:33;;;;;;;17.13;9.90;;;;;;;;;;5028086;28;20358;-91
2021/11/06 12:43:59;;;;;;;16.38;9.02;;;;;;;;;;5008326;28;20056;-90
2021/11/06 12:46:31;;;;;;;15.73;9.48;;;;;;;;;;5015839;28;20057;-89
2021/11/06 12:49:00;;;;;;;14.05;9.10;;;;;;;;;;5016143;28;20057;-90
2021/11/06 12:51:31;;;;;;;15.65;8.80;;;;;;;;;;5031858;28;20375;-91
2021/11/06 12:53:59;;;;;;;14.73;8.95;;;;;;;;;;5000413;28;20134;-88
2021/11/06 12:56:26;;;;;;;13.50;7.78;;;;;;;;;;4996168;28;20092;-89
2021/11/06 12:59:02;;;;;;;16.67;8.57;;;;;;;;;;5010286;28;20128;-89
2021/11/06 13:01:29;;;;;;;13.90;8.73;;;;;;;;;;5015414;28;20052;-92
2021/11/06 13:04:00;;;;;;;16.65;9.23;;;;;;;;;;5015138;28;20481;-89
2021/11/06 13:06:32;;;;;;;16.05;7.85;;;;;;;;;;5031952;28;20045;-88
2021/11/06 13:09:03;;;;;;;15.57;9.27;;;;;;;;;;5032002;28;20045;-89
2021/11/06 13:11:49;;;;;;;16.42;8.63;;;;;;;;;;5014439;28;20045;-93
2021/11/06 13:14:35;;;;;;;12.43;8.15;;;;;;;;;;5014847;28;20041;-90
2021/11/06 13:17:01;;;;;;;14.73;8.05;;;;;;;;;;5050548;28;20130;-92
2021/11/06 13:19:36;;;;;;;15.18;8.43;;;;;;;;;;5035245;28;20053;-92
2021/11/06 13:22:02;;;;;;;12.20;8.20;;;;;;;;;;5034481;28;20658;-88
2021/11/06 13:24:48;;;;;;;13.82;9.00;;;;;;;;;;5034235;28;20041;-93
2021/11/06 13:27:33;;;;;;;13.30;7.22;;;;;;;;;;5024229;28;20126;-88
2021/11/06 13:30:17;;;;;;;12.98;7.53;;;;;;;;;;5014775;28;20053;-88
2021/11/06 13:32:57;;;;;;;12.93;7.75;;;;;;;;;;5014398;28;20060;-89
2021/11/06 13:35:25;;;;;;;17.38;8.45;;;;;;;;;;5014262;28;20052;-88
2021/11/06 13:38:10;;;;;;;13.02;8.57;;;;;;;;;;5020839;28;20053;-88
2021/11/06 13:40:56;;;;;;;19.40;7.15;;;;;;;;;;5014042;28;20144;-88
2021/11/06 13:43:35;;;;;;;12.80;7.88;;;;;;;;;;5009214;28;20049;-88
2021/11/06 13:46:07;;;;;;;5.78;4.13;;;;;;;;;;5014293;28;20061;-88
2021/11/06 13:48:37;;;;;;;12.05;7.18;;;;;;;;;;5030621;28;20050;-88
2021/11/06 13:51:15;;;;;;;13.07;8.13;;;;;;;;;;5014337;28;20056;-87
2021/11/06 13:53:53;;;;;;;9.95;7.15;;;;;;;;;;5014138;28;20045;-88
2021/11/06 13:56:19;;;;;;;14.68;7.75;;;;;;;;;;5014659;28;20045;-87
2021/11/06 13:58:45;;;;;;;11.68;7.80;;;;;;;;;;5013803;28;20059;-88
2021/11/06 14:01:11;;;;;;;15.00;7.93;;;;;;;;;;5014238;28;20045;-88
2021/11/06 14:03:37;;;;;;;11.20;7.90;;;;;;;;;;5025491;28;20069;-87
2021/11/06 14:06:04;;;;;;;12.95;8.25;;;;;;;;;;4994895;28;20049;-87
2021/11/06 14:08:30;;;;;;;11.43;7.55;;;;;;;;;;5028171;28;20229;-87
2021/11/06 14:11:03;;;;;;;13.15;7.70;;;;;;;;;;5012927;28;20038;-89
2021/11/06 14:13:29;;;;;;;10.30;6.97;;;;;;;;;;4993324;28;20458;-91
2021/11/06 14:15:56;;;;;;;12.52;8.15;;;;;;;;;;5021750;28;20045;-84
2021/11/06 14:18:28;;;;;;;13.55;8.52;;;;;;;;;;5012523;28;20060;-84
2021/11/06 14:21:04;;;;;;;14.35;8.68;;;;;;;;;;5024984;28;20080;-84
2021/11/06 14:23:38;;;;;;;14.27;8.45;;;;;;;;;;5015782;28;20064;-86
2021/11/06 14:26:12;;;;;;;13.93;8.50;;;;;;;;;;5028657;28;20041;-85